createdAt,value
2022-12-28T00:00:22.902Z,22.55
2022-12-28T00:01:22.843Z,22.55
2022-12-28T00:02:22.888Z,22.54
2022-12-28T00:03:22.897Z,22.54
2022-12-28T00:54:33.733Z,22.10
2022-12-28T00:55:34.694Z,22.33
2022-12-28T00:56:34.688Z,22.40
2022-12-28T00:57:34.671Z,22.43
2022-12-28T00:58:34.661Z,22.46
2022-12-28T00:59:34.689Z,22.49
2022-12-28T01:00:34.663Z,22.50
2022-12-28T01:01:34.842Z,22.52
2022-12-28T01:02:34.656Z,22.52
2022-12-28T01:03:34.620Z,22.52
2022-12-28T01:04:34.641Z,22.52
2022-12-28T01:05:34.610Z,22.53
2022-12-28T01:06:34.597Z,22.54
2022-12-28T01:07:34.584Z,22.54
2022-12-28T01:08:34.584Z,22.54
2022-12-28T01:09:34.575Z,22.54
2022-12-28T01:10:34.584Z,22.54
2022-12-28T01:11:34.562Z,22.54
2022-12-28T01:12:38.045Z,22.54
2022-12-28T01:13:34.532Z,22.54
2022-12-28T01:14:34.522Z,22.54
2022-12-28T01:15:33.520Z,22.54
2022-12-28T01:16:34.619Z,22.54
2022-12-28T01:17:34.497Z,22.54
2022-12-28T01:18:34.484Z,22.54
2022-12-28T01:19:34.487Z,22.54
2022-12-28T01:20:34.475Z,22.54
2022-12-28T01:21:34.462Z,22.54
2022-12-28T01:22:34.453Z,22.54
2022-12-28T01:23:34.462Z,22.54
2022-12-28T01:24:34.433Z,22.54
2022-12-28T01:25:34.439Z,22.55
2022-12-28T01:26:34.438Z,22.54
2022-12-28T01:27:34.406Z,22.55
2022-12-28T01:28:34.398Z,22.54
2022-12-28T01:29:34.387Z,22.54
2022-12-28T01:30:34.380Z,22.54
2022-12-28T01:31:34.626Z,22.54
2022-12-28T01:32:34.577Z,22.54
2022-12-28T01:33:34.560Z,22.54
2022-12-28T01:34:34.554Z,22.54
2022-12-28T01:35:34.544Z,22.55
2022-12-28T01:36:34.532Z,22.54
2022-12-28T01:37:34.528Z,22.54
2022-12-28T01:38:34.525Z,22.54
2022-12-28T01:39:34.513Z,22.54
2022-12-28T01:40:34.497Z,22.53
2022-12-28T01:41:34.485Z,22.53
2022-12-28T01:42:34.506Z,22.53
2022-12-28T01:43:34.472Z,22.52
2022-12-28T01:44:34.464Z,22.52
2022-12-28T01:45:34.517Z,22.53
2022-12-28T01:46:34.443Z,22.53
2022-12-28T01:47:34.441Z,22.54
2022-12-28T01:48:34.434Z,22.53
2022-12-28T01:49:34.428Z,22.53
2022-12-28T01:50:34.416Z,22.53
2022-12-28T01:51:34.402Z,22.53
2022-12-28T01:52:34.395Z,22.53
2022-12-28T01:53:34.380Z,22.54
2022-12-28T01:54:34.375Z,22.52
2022-12-28T01:55:34.368Z,22.53
2022-12-28T01:56:34.361Z,22.53
2022-12-28T01:57:34.349Z,22.53
2022-12-28T01:58:34.387Z,22.53
2022-12-28T01:59:34.330Z,22.53
2022-12-28T02:00:34.328Z,22.53
2022-12-28T02:01:34.383Z,22.53
2022-12-28T02:02:34.486Z,22.53
2022-12-28T02:03:34.296Z,22.52
2022-12-28T02:04:34.279Z,22.52
2022-12-28T02:05:34.273Z,22.52
2022-12-28T02:06:34.276Z,22.52
2022-12-28T02:07:34.302Z,22.52
2022-12-28T02:08:34.245Z,22.52
2022-12-28T02:09:34.234Z,22.53
2022-12-28T02:10:40.721Z,22.53
2022-12-28T02:11:34.228Z,22.53
2022-12-28T02:12:34.296Z,22.52
2022-12-28T02:13:34.199Z,22.53
2022-12-28T02:14:34.221Z,22.53
2022-12-28T02:15:34.182Z,22.54
2022-12-28T02:16:34.253Z,22.54
2022-12-28T02:17:34.166Z,22.54
2022-12-28T02:18:34.154Z,22.55
2022-12-28T02:19:34.144Z,22.55
2022-12-28T02:20:34.141Z,22.54
2022-12-28T02:21:34.124Z,22.54
2022-12-28T02:22:34.113Z,22.54
2022-12-28T02:23:34.117Z,22.54
2022-12-28T02:24:34.096Z,22.54
2022-12-28T02:25:34.082Z,22.53
2022-12-28T02:27:34.071Z,22.53
2022-12-28T02:28:34.056Z,22.53
2022-12-28T02:29:34.064Z,22.53
2022-12-28T02:30:34.461Z,22.52
2022-12-28T02:31:34.033Z,22.53
2022-12-28T02:32:34.013Z,22.52
2022-12-28T02:33:34.008Z,22.53
2022-12-28T02:34:34.001Z,22.52
2022-12-28T02:35:34.036Z,22.52
2022-12-28T02:36:33.987Z,22.52
2022-12-28T02:37:33.978Z,22.52
2022-12-28T02:38:33.962Z,22.52
2022-12-28T02:39:33.947Z,22.52
2022-12-28T02:40:33.941Z,22.52
2022-12-28T02:41:33.936Z,22.53
2022-12-28T02:42:33.930Z,22.53
2022-12-28T02:43:33.954Z,22.53
2022-12-28T02:44:33.912Z,22.53
2022-12-28T02:45:33.896Z,22.53
2022-12-28T02:46:33.936Z,22.53
2022-12-28T02:47:33.887Z,22.53
2022-12-28T02:48:33.863Z,22.53
2022-12-28T02:49:33.857Z,22.52
2022-12-28T02:50:33.845Z,22.52
2022-12-28T02:51:33.845Z,22.52
2022-12-28T02:52:33.832Z,22.52
2022-12-28T07:17:31.457Z,22.50
2022-12-28T07:57:31.103Z,22.50
2022-12-28T07:59:31.451Z,22.49
2022-12-28T12:39:28.628Z,22.62
2022-12-28T12:40:28.626Z,22.63
2022-12-28T12:41:28.609Z,22.62
2022-12-28T12:42:28.605Z,22.63
2022-12-28T12:43:28.591Z,22.62
2022-12-28T12:44:28.581Z,22.62
2022-12-28T12:45:28.580Z,22.62
2022-12-28T12:46:28.604Z,22.62
2022-12-28T12:47:28.565Z,22.62
2022-12-28T12:48:28.549Z,22.62
2022-12-28T12:49:28.543Z,22.62
2022-12-28T12:50:28.533Z,22.61
2022-12-28T12:51:28.528Z,22.61
2022-12-28T12:52:28.518Z,22.61
2022-12-28T12:53:28.507Z,22.61
2022-12-28T12:54:28.529Z,22.61
2022-12-28T12:55:28.495Z,22.60
2022-12-28T12:56:28.494Z,22.61
2022-12-28T12:57:28.474Z,22.62
2022-12-28T12:58:28.468Z,22.61
2022-12-28T12:59:28.462Z,22.61
2022-12-28T13:00:28.448Z,22.61
2022-12-28T13:01:28.671Z,22.61
2022-12-28T13:02:28.640Z,22.61
2022-12-28T13:03:28.492Z,22.61
2022-12-28T13:04:28.411Z,22.61
2022-12-28T13:05:28.405Z,22.61
2022-12-28T13:06:28.395Z,22.63
2022-12-28T13:07:28.398Z,22.61
2022-12-28T13:08:28.387Z,22.62
2022-12-28T13:09:28.375Z,22.63
2022-12-28T13:10:28.384Z,22.62
2022-12-28T13:11:28.369Z,22.62
2022-12-28T13:12:28.346Z,22.62
2022-12-28T13:13:28.339Z,22.62
2022-12-28T13:14:28.343Z,22.62
2022-12-28T13:15:28.409Z,22.62
2022-12-28T13:16:28.316Z,22.62
2022-12-28T13:17:28.308Z,22.63
2022-12-28T13:18:45.325Z,22.63
2022-12-28T13:19:28.287Z,22.62
2022-12-28T13:20:28.273Z,22.62
2022-12-28T13:21:28.270Z,22.63
2022-12-28T13:22:28.261Z,22.63
2022-12-28T13:23:28.252Z,22.63
2022-12-28T13:24:28.255Z,22.63
2022-12-28T13:25:28.237Z,22.63
2022-12-28T13:26:28.292Z,22.63
2022-12-28T13:27:28.214Z,22.63
2022-12-28T13:28:28.205Z,22.63
2022-12-28T13:29:28.202Z,22.63
2022-12-28T13:30:28.201Z,22.62
2022-12-28T13:31:28.188Z,22.64
2022-12-28T13:32:32.781Z,22.63
2022-12-28T13:33:28.162Z,22.63
2022-12-28T13:34:28.156Z,22.64
2022-12-28T13:35:28.174Z,22.63
2022-12-28T13:36:28.152Z,22.64
2022-12-28T13:37:28.142Z,22.63
2022-12-28T13:38:28.122Z,22.64
2022-12-28T13:39:28.132Z,22.64
2022-12-28T13:40:28.106Z,22.63
2022-12-28T13:41:28.102Z,22.63
2022-12-28T13:42:28.118Z,22.63
2022-12-28T13:43:28.077Z,22.63
2022-12-28T13:44:28.082Z,22.64
2022-12-28T13:45:28.069Z,22.63
2022-12-28T13:46:28.164Z,22.63
2022-12-28T13:47:28.059Z,22.62
2022-12-28T13:48:28.051Z,22.63
2022-12-28T13:49:28.035Z,22.62
2022-12-28T13:50:28.040Z,22.63
2022-12-28T13:51:28.016Z,22.64
2022-12-28T13:52:28.008Z,22.64
2022-12-28T13:53:28.001Z,22.63
2022-12-28T13:54:27.985Z,22.63
2022-12-28T13:55:27.976Z,22.64
2022-12-28T13:56:27.966Z,22.64
2022-12-28T13:58:27.983Z,22.64
2022-12-28T13:59:27.943Z,22.64
2022-12-28T14:00:27.930Z,22.64
2022-12-28T14:01:28.034Z,22.63
2022-12-28T14:02:27.955Z,22.64
2022-12-28T14:03:27.914Z,22.64
2022-12-28T14:04:53.976Z,22.64
2022-12-28T14:05:27.983Z,22.63
2022-12-28T14:06:27.885Z,22.63
2022-12-28T14:07:27.910Z,22.64
2022-12-28T14:08:27.869Z,22.63
2022-12-28T14:09:27.852Z,22.64
2022-12-28T14:10:27.838Z,22.65
2022-12-28T14:11:27.834Z,22.64
2022-12-28T14:12:27.880Z,22.63
2022-12-28T14:13:27.835Z,22.64
2022-12-28T14:14:27.836Z,22.64
2022-12-28T14:15:27.828Z,22.65
2022-12-28T14:16:27.843Z,22.64
2022-12-28T14:17:27.780Z,22.64
2022-12-28T14:18:27.771Z,22.64
2022-12-28T14:19:27.771Z,22.64
2022-12-28T14:20:27.754Z,22.64
2022-12-28T14:21:27.756Z,22.64
2022-12-28T14:22:27.738Z,22.63
2022-12-28T14:23:27.755Z,22.63
2022-12-28T14:24:27.731Z,22.63
2022-12-28T14:25:27.726Z,22.63
2022-12-28T14:26:27.702Z,22.63
2022-12-28T14:27:27.702Z,22.64
2022-12-28T14:28:27.689Z,22.64
2022-12-28T14:29:27.684Z,22.64
2022-12-28T14:30:27.700Z,22.63
2022-12-28T14:31:27.776Z,22.62
2022-12-28T14:32:27.653Z,22.63
2022-12-28T14:33:27.650Z,22.62
2022-12-28T14:34:27.640Z,22.64
2022-12-28T14:35:27.629Z,22.62
2022-12-28T14:36:27.611Z,22.63
2022-12-28T14:37:27.625Z,22.63
2022-12-28T14:38:27.600Z,22.62
2022-12-28T14:39:27.600Z,22.62
2022-12-28T14:40:27.765Z,22.62
2022-12-28T14:41:27.577Z,22.61
2022-12-28T14:42:27.561Z,22.62
2022-12-28T14:43:27.573Z,22.62
2022-12-28T14:44:27.551Z,22.62
2022-12-28T14:45:27.539Z,22.62
2022-12-28T14:46:27.596Z,22.61
2022-12-28T14:47:27.513Z,22.61
2022-12-28T14:48:27.509Z,22.60
2022-12-28T14:49:27.500Z,22.61
2022-12-28T14:50:27.496Z,22.61
2022-12-28T14:51:27.484Z,22.61
2022-12-28T14:53:27.460Z,22.60
2022-12-28T14:54:27.450Z,22.61
2022-12-28T14:55:27.438Z,22.61
2022-12-28T14:56:27.468Z,22.61
2022-12-28T14:57:27.434Z,22.61
2022-12-28T14:58:27.417Z,22.60
2022-12-28T14:59:27.409Z,22.61
2022-12-28T15:00:27.401Z,22.60
2022-12-28T15:01:27.453Z,22.60
2022-12-28T15:02:27.616Z,22.60
2022-12-28T15:03:27.484Z,22.60
2022-12-28T15:04:27.362Z,22.60
2022-12-28T15:05:27.351Z,22.60
2022-12-28T15:06:27.370Z,22.60
2022-12-28T15:07:27.336Z,22.60
2022-12-28T15:08:27.323Z,22.60
2022-12-28T15:09:27.328Z,22.59
2022-12-28T15:10:27.315Z,22.59
2022-12-28T15:11:27.304Z,22.59
2022-12-28T15:12:27.290Z,22.58
2022-12-28T15:13:27.311Z,22.58
2022-12-28T15:14:27.280Z,22.59
2022-12-28T15:15:27.262Z,22.58
2022-12-28T15:16:27.321Z,22.58
2022-12-28T15:17:33.228Z,22.59
2022-12-28T15:18:27.283Z,22.58
2022-12-28T15:19:27.235Z,22.58
2022-12-28T15:20:27.219Z,22.58
2022-12-28T15:21:27.219Z,22.59
2022-12-28T15:22:27.205Z,22.58
2022-12-28T15:23:27.204Z,22.58
2022-12-28T15:24:33.458Z,22.58
2022-12-28T15:25:27.180Z,22.58
2022-12-28T15:26:27.172Z,22.58
2022-12-28T15:27:27.160Z,22.57
2022-12-28T15:28:27.160Z,22.58
2022-12-28T15:29:47.884Z,22.58
2022-12-28T15:30:29.177Z,22.57
2022-12-28T15:31:27.192Z,22.57
2022-12-28T15:32:27.135Z,22.58
2022-12-28T15:33:27.111Z,22.58
2022-12-28T15:34:27.136Z,22.57
2022-12-28T15:35:27.107Z,22.57
2022-12-28T15:36:27.088Z,22.58
2022-12-28T15:37:27.081Z,22.58
2022-12-28T15:38:27.060Z,22.58
2022-12-28T15:39:27.057Z,22.57
2022-12-28T15:40:27.047Z,22.58
2022-12-28T15:41:27.045Z,22.58
2022-12-28T15:42:27.042Z,22.58
2022-12-28T15:43:27.033Z,22.58
2022-12-28T15:44:27.059Z,22.58
2022-12-28T15:45:27.012Z,22.58
2022-12-28T15:46:27.065Z,22.57
2022-12-28T15:47:26.997Z,22.56
2022-12-28T15:48:26.979Z,22.57
2022-12-28T15:49:26.976Z,22.56
2022-12-28T15:50:26.999Z,22.57
2022-12-28T15:51:26.961Z,22.56
2022-12-28T15:52:26.946Z,22.57
2022-12-28T15:53:26.932Z,22.57
2022-12-28T15:54:26.937Z,22.57
2022-12-28T15:55:26.921Z,22.57
2022-12-28T15:56:26.911Z,22.57
2022-12-28T15:57:26.907Z,22.56
2022-12-28T15:58:26.897Z,22.57
2022-12-28T15:59:26.885Z,22.57
2022-12-28T16:00:26.882Z,22.57
2022-12-28T16:01:27.043Z,22.56
2022-12-28T16:02:27.124Z,22.57
2022-12-28T16:03:26.916Z,22.56
2022-12-28T16:04:26.842Z,22.57
2022-12-28T16:05:26.837Z,22.57
2022-12-28T16:06:26.854Z,22.57
2022-12-28T16:07:26.812Z,22.57
2022-12-28T16:08:26.811Z,22.57
2022-12-28T16:09:26.810Z,22.57
2022-12-28T16:10:26.789Z,22.57
2022-12-28T16:11:26.779Z,22.57
2022-12-28T16:12:26.772Z,22.57
2022-12-28T16:13:26.775Z,22.57
2022-12-28T16:14:26.750Z,22.57
2022-12-28T16:15:26.745Z,22.57
2022-12-28T16:16:26.843Z,22.57
2022-12-28T16:17:26.729Z,22.57
2022-12-28T16:18:26.720Z,22.57
2022-12-28T16:19:26.718Z,22.57
2022-12-28T16:20:26.716Z,22.57
2022-12-28T16:21:26.690Z,22.57
2022-12-28T16:22:26.717Z,22.57
2022-12-28T16:23:26.679Z,22.56
2022-12-28T16:24:26.666Z,22.55
2022-12-28T16:25:26.690Z,22.56
2022-12-28T16:26:26.663Z,22.55
2022-12-28T16:27:26.648Z,22.55
2022-12-28T16:28:26.642Z,22.56
2022-12-28T16:29:26.629Z,22.55
2022-12-28T16:30:26.625Z,22.55
2022-12-28T16:31:26.697Z,22.55
2022-12-28T16:32:26.609Z,22.55
2022-12-28T16:33:26.592Z,22.56
2022-12-28T16:34:26.585Z,22.56
2022-12-28T16:35:26.579Z,22.55
2022-12-28T16:36:26.565Z,22.56
2022-12-28T16:37:26.557Z,22.56
2022-12-28T16:38:26.570Z,22.56
2022-12-28T16:39:26.547Z,22.56
2022-12-28T16:40:26.531Z,22.56
2022-12-28T16:41:31.386Z,22.56
2022-12-28T16:42:26.522Z,22.55
2022-12-28T16:43:26.506Z,22.56
2022-12-28T16:44:26.496Z,22.55
2022-12-28T16:45:26.554Z,22.54
2022-12-28T16:46:26.627Z,22.54
2022-12-28T16:47:26.474Z,22.54
2022-12-28T16:48:26.467Z,22.55
2022-12-28T16:49:26.457Z,22.55
2022-12-28T16:50:26.445Z,22.55
2022-12-28T16:51:26.433Z,22.55
2022-12-28T16:52:26.428Z,22.54
2022-12-28T16:53:26.420Z,22.55
2022-12-28T16:54:26.448Z,22.54
2022-12-28T16:55:26.402Z,22.54
2022-12-28T16:56:26.399Z,22.54
2022-12-28T16:57:25.388Z,22.55
2022-12-28T16:58:26.377Z,22.55
2022-12-28T16:59:26.377Z,22.55
2022-12-28T17:00:26.360Z,22.54
2022-12-28T17:01:26.515Z,22.55
2022-12-28T17:02:26.553Z,22.55
2022-12-28T17:03:26.432Z,22.55
2022-12-28T17:04:26.335Z,22.56
2022-12-28T17:05:26.316Z,22.55
2022-12-28T17:06:26.321Z,22.55
2022-12-28T17:07:26.300Z,22.54
2022-12-28T17:08:26.293Z,22.55
2022-12-28T17:09:26.282Z,22.54
2022-12-28T17:10:26.298Z,22.56
2022-12-28T17:11:26.268Z,22.55
2022-12-28T17:12:26.256Z,22.55
2022-12-28T17:13:26.245Z,22.55
2022-12-28T17:14:38.149Z,22.54
2022-12-28T17:15:26.230Z,22.55
2022-12-28T17:16:26.269Z,22.54
2022-12-28T17:17:26.209Z,22.55
2022-12-28T17:18:26.200Z,22.54
2022-12-28T17:19:26.197Z,22.54
2022-12-28T17:20:26.200Z,22.54
2022-12-28T17:21:26.192Z,22.53
2022-12-28T17:22:26.162Z,22.53
2022-12-28T17:23:26.161Z,22.53
2022-12-28T17:24:26.160Z,22.53
2022-12-28T17:25:26.139Z,22.53
2022-12-28T17:26:26.164Z,22.53
2022-12-28T17:27:26.124Z,22.53
2022-12-28T17:28:26.118Z,22.53
2022-12-28T17:29:26.106Z,22.52
2022-12-28T17:30:26.094Z,22.53
2022-12-28T17:31:26.164Z,22.52
2022-12-28T17:32:26.093Z,22.53
2022-12-28T17:33:26.073Z,22.53
2022-12-28T17:34:26.057Z,22.53
2022-12-28T17:35:26.056Z,22.53
2022-12-28T17:36:26.042Z,22.53
2022-12-28T17:37:26.037Z,22.53
2022-12-28T17:38:26.025Z,22.53
2022-12-28T17:39:26.021Z,22.52
2022-12-28T17:40:26.009Z,22.52
2022-12-28T17:41:25.998Z,22.52
2022-12-28T17:42:26.017Z,22.53
2022-12-28T17:43:25.984Z,22.53
2022-12-28T17:44:25.973Z,22.52
2022-12-28T17:45:25.968Z,22.52
2022-12-28T17:46:26.100Z,22.53
2022-12-28T17:47:25.964Z,22.52
2022-12-28T17:48:25.955Z,22.52
2022-12-28T17:49:25.936Z,22.52
2022-12-28T17:50:25.921Z,22.51
2022-12-28T17:51:25.917Z,22.52
2022-12-28T17:52:25.907Z,22.52
2022-12-28T17:53:25.952Z,22.52
2022-12-28T17:54:25.893Z,22.51
2022-12-28T17:55:25.884Z,22.52
2022-12-28T17:56:25.875Z,22.52
2022-12-28T17:57:25.868Z,22.52
2022-12-28T17:58:25.873Z,22.53
2022-12-28T17:59:25.844Z,22.52
2022-12-28T18:00:25.835Z,22.52
2022-12-28T18:01:25.976Z,22.52
2022-12-28T18:02:26.035Z,22.51
2022-12-28T18:03:31.556Z,22.51
2022-12-28T18:04:25.795Z,22.51
2022-12-28T18:05:25.788Z,22.51
2022-12-28T18:06:25.775Z,22.52
2022-12-28T18:07:25.770Z,22.51
2022-12-28T18:08:25.769Z,22.51
2022-12-28T18:09:28.167Z,22.52
2022-12-28T18:10:25.746Z,22.52
2022-12-28T18:11:25.727Z,22.51
2022-12-28T18:12:25.754Z,22.51
2022-12-28T18:13:25.724Z,22.51
2022-12-28T18:14:25.732Z,22.52
2022-12-28T18:15:31.348Z,22.52
2022-12-28T18:16:25.755Z,22.51
2022-12-28T18:17:25.678Z,22.51
2022-12-28T18:18:25.670Z,22.51
2022-12-28T18:19:25.682Z,22.50
2022-12-28T18:20:25.649Z,22.50
2022-12-28T18:21:25.674Z,22.51
2022-12-28T18:22:25.645Z,22.51
2022-12-28T18:23:25.629Z,22.51
2022-12-28T18:24:25.627Z,22.51
2022-12-28T18:25:25.610Z,22.51
2022-12-28T18:26:25.601Z,22.51
2022-12-28T18:27:25.594Z,22.51
2022-12-28T18:28:25.585Z,22.50
2022-12-28T18:29:25.580Z,22.51
2022-12-28T18:30:25.620Z,22.51
2022-12-28T18:31:25.650Z,22.51
2022-12-28T18:32:25.554Z,22.51
2022-12-28T18:33:25.559Z,22.51
2022-12-28T18:34:25.529Z,22.51
2022-12-28T18:35:25.521Z,22.51
2022-12-28T18:36:25.519Z,22.51
2022-12-28T18:37:25.505Z,22.51
2022-12-28T18:38:25.560Z,22.51
2022-12-28T18:39:25.487Z,22.49
2022-12-28T18:40:25.475Z,22.50
2022-12-28T18:41:28.937Z,22.49
2022-12-28T18:42:25.464Z,22.50
2022-12-28T18:43:25.462Z,22.49
2022-12-28T18:44:25.441Z,22.49
2022-12-28T18:45:25.438Z,22.50
2022-12-28T18:46:25.492Z,22.51
2022-12-28T18:47:25.427Z,22.51
2022-12-28T18:48:25.405Z,22.51
2022-12-28T18:49:25.400Z,22.50
2022-12-28T18:50:25.389Z,22.51
2022-12-28T18:51:25.402Z,22.51
2022-12-28T18:52:25.372Z,22.51
2022-12-28T18:53:25.370Z,22.50
2022-12-28T20:43:24.408Z,22.50
2022-12-28T20:44:24.399Z,22.50
2022-12-28T20:45:24.399Z,22.50
2022-12-28T20:46:24.439Z,22.49
2022-12-28T20:47:24.367Z,22.49
2022-12-28T20:48:24.356Z,22.49
2022-12-28T20:49:24.346Z,22.49
2022-12-28T20:50:24.339Z,22.49
2022-12-28T20:51:24.408Z,22.49
2022-12-28T20:52:24.317Z,22.48
2022-12-28T20:53:24.311Z,22.49
2022-12-28T20:54:24.330Z,22.48
2022-12-28T20:55:24.296Z,22.49
2022-12-28T20:56:24.280Z,22.49
2022-12-28T20:57:24.301Z,22.48
2022-12-28T20:58:24.266Z,22.49
2022-12-28T20:59:24.263Z,22.49
2022-12-28T21:00:24.246Z,22.49
2022-12-28T21:01:24.371Z,22.49
2022-12-28T21:02:24.306Z,22.48
2022-12-28T21:03:24.220Z,22.48
2022-12-28T21:04:24.419Z,22.48
2022-12-28T21:05:24.216Z,22.48
2022-12-28T21:06:24.198Z,22.49
2022-12-28T21:07:24.186Z,22.48
2022-12-28T21:08:28.881Z,22.48
2022-12-28T21:09:24.179Z,22.47
2022-12-28T21:10:24.236Z,22.47
2022-12-28T21:11:24.146Z,22.48
2022-12-28T21:12:24.149Z,22.48
2022-12-28T21:13:24.135Z,22.48
2022-12-28T21:14:24.122Z,22.48
2022-12-28T21:15:24.108Z,22.48
2022-12-28T21:16:24.149Z,22.47
2022-12-28T21:17:24.104Z,22.48
2022-12-28T21:18:24.092Z,22.47
2022-12-28T21:19:24.069Z,22.47
2022-12-28T21:20:24.066Z,22.49
2022-12-28T21:21:24.056Z,22.48
2022-12-28T21:22:24.043Z,22.49
2022-12-28T21:23:24.042Z,22.49
2022-12-28T21:24:24.025Z,22.49
2022-12-28T21:25:24.012Z,22.49
2022-12-28T21:26:24.032Z,22.49
2022-12-28T21:27:23.997Z,22.49
2022-12-28T21:28:24.000Z,22.49
2022-12-28T21:29:26.138Z,22.47
2022-12-28T21:30:23.977Z,22.47
2022-12-28T21:31:24.026Z,22.48
2022-12-28T21:32:23.964Z,22.48
2022-12-28T21:33:23.944Z,22.47
2022-12-28T21:34:23.957Z,22.47
2022-12-28T21:35:26.724Z,22.46
2022-12-28T21:36:23.938Z,22.47
2022-12-28T21:37:23.919Z,22.47
2022-12-28T21:38:23.904Z,22.47
2022-12-28T21:39:23.898Z,22.47
2022-12-28T21:40:23.886Z,22.47
2022-12-28T21:41:23.875Z,22.47
2022-12-28T21:42:23.889Z,22.47
2022-12-28T21:43:23.914Z,22.47
2022-12-28T21:44:23.849Z,22.47
2022-12-28T21:45:23.911Z,22.47
2022-12-28T21:46:23.858Z,22.47
2022-12-28T21:47:23.825Z,22.46
2022-12-28T21:48:23.812Z,22.46
2022-12-28T21:49:23.797Z,22.46
2022-12-28T21:50:23.800Z,22.46
2022-12-28T21:51:23.787Z,22.46
2022-12-28T21:52:23.791Z,22.47
2022-12-28T21:53:23.770Z,22.46
2022-12-28T21:54:23.762Z,22.46
2022-12-28T21:55:23.748Z,22.46
2022-12-28T21:56:23.746Z,22.46
2022-12-28T21:57:23.725Z,22.46
2022-12-28T21:58:23.755Z,22.47
2022-12-28T21:59:23.745Z,22.47
2022-12-28T22:00:23.701Z,22.47
2022-12-28T22:01:23.898Z,22.46
2022-12-28T22:02:23.884Z,22.47
2022-12-28T22:03:23.754Z,22.46
2022-12-28T22:04:23.665Z,22.46
2022-12-28T22:05:23.681Z,22.47
2022-12-28T22:06:23.696Z,22.46
2022-12-28T22:07:23.659Z,22.47
2022-12-28T22:08:23.630Z,22.47
2022-12-28T22:09:23.685Z,22.47
2022-12-28T22:10:23.605Z,22.47
2022-12-28T22:11:23.658Z,22.46
2022-12-28T22:12:23.635Z,22.46
2022-12-28T22:13:23.618Z,22.47
2022-12-28T22:14:23.602Z,22.47
2022-12-28T22:15:23.563Z,22.46
2022-12-28T22:16:23.695Z,22.47
2022-12-28T22:17:23.544Z,22.46
2022-12-28T22:18:52.614Z,22.46
2022-12-28T22:19:23.534Z,22.46
2022-12-28T22:20:23.538Z,22.46
2022-12-28T22:21:23.533Z,22.47
2022-12-28T22:22:23.516Z,22.47
2022-12-28T22:23:23.502Z,22.47
2022-12-28T22:24:23.484Z,22.46
2022-12-28T22:25:23.479Z,22.46
2022-12-28T22:26:23.497Z,22.46
2022-12-28T22:27:23.458Z,22.47
2022-12-28T22:28:23.456Z,22.46
2022-12-28T22:29:23.448Z,22.46
2022-12-28T22:30:23.474Z,22.46
2022-12-28T22:31:23.484Z,22.46
2022-12-28T22:32:23.409Z,22.45
2022-12-28T22:33:23.406Z,22.46
2022-12-28T22:34:23.403Z,22.45
2022-12-28T22:35:23.382Z,22.46
2022-12-28T22:36:23.383Z,22.46
2022-12-28T22:37:23.375Z,22.46
2022-12-28T22:38:23.370Z,22.46
2022-12-28T22:39:23.354Z,22.47
2022-12-28T22:40:23.343Z,22.46
2022-12-28T22:41:23.335Z,22.46
2022-12-28T22:42:23.326Z,22.47
2022-12-28T22:43:23.351Z,22.46
2022-12-28T22:44:23.307Z,22.47
2022-12-28T22:45:23.300Z,22.46
2022-12-28T22:46:23.354Z,22.46
2022-12-28T22:47:23.293Z,22.46
2022-12-28T22:48:23.307Z,22.47
2022-12-28T22:49:23.265Z,22.46
2022-12-28T22:50:23.287Z,22.46
2022-12-28T22:51:23.252Z,22.46
2022-12-28T22:52:23.239Z,22.46
2022-12-28T22:53:23.272Z,22.46
2022-12-28T22:54:23.221Z,22.45
2022-12-28T22:55:23.211Z,22.45
2022-12-28T22:56:23.215Z,22.46
2022-12-28T22:57:23.212Z,22.46
2022-12-28T22:58:23.185Z,22.46
2022-12-28T22:59:23.189Z,22.46
2022-12-28T23:00:23.170Z,22.46
2022-12-28T23:01:23.272Z,22.46
2022-12-28T23:02:23.293Z,22.45
2022-12-28T23:03:23.228Z,22.46
2022-12-28T23:04:23.165Z,22.46
2022-12-28T23:05:23.126Z,22.46
2022-12-28T23:06:23.121Z,22.46
2022-12-28T23:07:23.121Z,22.46
2022-12-28T23:08:23.101Z,22.45
2022-12-28T23:09:23.794Z,22.45
2022-12-28T23:10:23.080Z,22.46
2022-12-28T23:11:23.073Z,22.46
2022-12-28T23:12:23.089Z,22.46
2022-12-28T23:13:23.075Z,22.46
2022-12-28T23:14:23.051Z,22.45
2022-12-28T23:15:23.041Z,22.45
2022-12-28T23:16:23.083Z,22.45
2022-12-28T23:17:23.027Z,22.46
2022-12-28T23:18:23.053Z,22.46
2022-12-28T23:19:23.004Z,22.46
2022-12-28T23:20:23.003Z,22.46
2022-12-28T23:21:22.989Z,22.46
2022-12-28T23:22:22.984Z,22.46
2022-12-28T23:23:22.973Z,22.46
2022-12-28T23:24:22.964Z,22.46
2022-12-28T23:25:22.959Z,22.46
2022-12-28T23:26:22.943Z,22.46
2022-12-28T23:27:22.941Z,22.47
2022-12-28T23:28:22.933Z,22.48
2022-12-28T23:29:27.278Z,22.47
2022-12-28T23:30:22.924Z,22.46
2022-12-28T23:31:22.960Z,22.46
2022-12-28T23:32:22.908Z,22.47
2022-12-28T23:33:22.879Z,22.46
2022-12-28T23:34:22.897Z,22.45
2022-12-28T23:35:22.869Z,22.46
2022-12-28T23:36:22.850Z,22.45
2022-12-28T23:37:22.843Z,22.45
2022-12-28T23:38:22.831Z,22.45
2022-12-28T23:39:22.822Z,22.46
2022-12-28T23:40:22.819Z,22.46
2022-12-28T23:41:22.820Z,22.45
2022-12-28T23:42:22.805Z,22.46
2022-12-28T23:43:22.786Z,22.45
2022-12-28T23:44:22.781Z,22.45
2022-12-28T23:45:22.780Z,22.46
2022-12-28T23:46:22.900Z,22.46
2022-12-28T23:47:22.758Z,22.47
2022-12-28T23:48:22.741Z,22.47
2022-12-28T23:49:22.733Z,22.46
2022-12-28T23:50:22.756Z,22.46
2022-12-28T23:51:22.719Z,22.46
2022-12-28T23:52:26.031Z,22.46
2022-12-28T23:53:22.699Z,22.45
2022-12-28T23:54:22.691Z,22.45
2022-12-28T23:55:22.689Z,22.45
2022-12-28T23:56:22.678Z,22.44
2022-12-28T23:57:22.680Z,22.45
